sensor_id;sensor_type;location;lat;lon;timestamp;pressure;altitude;pressure_sealevel;temperature;humidity
77212;BME280;66206;0.000;0.000;2023-12-22T00:00:10;96143.69;;;23.36;27.25
77212;BME280;66206;0.000;0.000;2023-12-22T00:02:37;96146.82;;;23.57;27.08
77212;BME280;66206;0.000;0.000;2023-12-22T00:05:04;96165.95;;;23.83;26.65
77212;BME280;66206;0.000;0.000;2023-12-22T00:07:31;96168.63;;;23.46;26.96
77212;BME280;66206;0.000;0.000;2023-12-22T00:09:58;96171.36;;;23.14;26.94
77212;BME280;66206;0.000;0.000;2023-12-22T00:12:25;96169.72;;;23.07;27.06
77212;BME280;66206;0.000;0.000;2023-12-22T00:14:51;96170.71;;;23.07;27.16
77212;BME280;66206;0.000;0.000;2023-12-22T00:17:18;96174.69;;;22.88;27.28
77212;BME280;66206;0.000;0.000;2023-12-22T00:19:45;96186.64;;;22.89;27.26
77212;BME280;66206;0.000;0.000;2023-12-22T00:22:12;96186.15;;;22.90;27.30
77212;BME280;66206;0.000;0.000;2023-12-22T00:24:38;96187.97;;;22.77;27.50
77212;BME280;66206;0.000;0.000;2023-12-22T00:27:05;96173.22;;;22.52;27.74
77212;BME280;66206;0.000;0.000;2023-12-22T00:29:32;96175.41;;;22.61;27.68
77212;BME280;66206;0.000;0.000;2023-12-22T00:31:59;96168.27;;;22.42;27.70
77212;BME280;66206;0.000;0.000;2023-12-22T00:34:25;96171.35;;;22.67;27.65
77212;BME280;66206;0.000;0.000;2023-12-22T00:36:52;96179.06;;;22.61;27.61
77212;BME280;66206;0.000;0.000;2023-12-22T00:39:19;96178.93;;;22.59;27.70
77212;BME280;66206;0.000;0.000;2023-12-22T00:41:46;96177.06;;;22.47;27.81
77212;BME280;66206;0.000;0.000;2023-12-22T00:44:12;96176.92;;;22.42;27.73
77212;BME280;66206;0.000;0.000;2023-12-22T00:46:39;96188.10;;;22.19;27.89
77212;BME280;66206;0.000;0.000;2023-12-22T00:49:06;96207.98;;;22.36;27.82
77212;BME280;66206;0.000;0.000;2023-12-22T00:51:32;96209.64;;;22.48;27.86
77212;BME280;66206;0.000;0.000;2023-12-22T00:53:59;96206.23;;;22.52;27.71
77212;BME280;66206;0.000;0.000;2023-12-22T00:56:26;96204.29;;;22.24;28.03
77212;BME280;66206;0.000;0.000;2023-12-22T00:58:53;96202.62;;;22.25;27.92
77212;BME280;66206;0.000;0.000;2023-12-22T01:01:20;96211.51;;;22.20;28.00
77212;BME280;66206;0.000;0.000;2023-12-22T01:03:46;96199.73;;;22.48;27.73
77212;BME280;66206;0.000;0.000;2023-12-22T01:06:13;96201.59;;;22.33;28.06
77212;BME280;66206;0.000;0.000;2023-12-22T01:08:40;96189.05;;;22.23;28.04
77212;BME280;66206;0.000;0.000;2023-12-22T01:11:07;96198.94;;;22.02;28.27
77212;BME280;66206;0.000;0.000;2023-12-22T01:13:33;96190.51;;;22.03;28.19
77212;BME280;66206;0.000;0.000;2023-12-22T01:16:00;96198.27;;;22.14;28.21
77212;BME280;66206;0.000;0.000;2023-12-22T01:18:27;96194.56;;;22.14;28.09
77212;BME280;66206;0.000;0.000;2023-12-22T01:20:54;96198.75;;;22.14;27.99
77212;BME280;66206;0.000;0.000;2023-12-22T01:23:20;96186.55;;;22.13;28.18
77212;BME280;66206;0.000;0.000;2023-12-22T01:25:47;96200.65;;;22.19;28.13
77212;BME280;66206;0.000;0.000;2023-12-22T01:28:14;96209.87;;;22.12;28.08
77212;BME280;66206;0.000;0.000;2023-12-22T01:30:41;96207.07;;;21.93;28.29
77212;BME280;66206;0.000;0.000;2023-12-22T01:33:07;96210.58;;;21.97;28.30
77212;BME280;66206;0.000;0.000;2023-12-22T01:35:34;96220.53;;;22.01;28.21
77212;BME280;66206;0.000;0.000;2023-12-22T01:38:01;96224.53;;;21.77;28.32
77212;BME280;66206;0.000;0.000;2023-12-22T01:40:28;96223.24;;;21.96;28.33
77212;BME280;66206;0.000;0.000;2023-12-22T01:42:55;96222.10;;;21.84;28.42
77212;BME280;66206;0.000;0.000;2023-12-22T01:45:21;96220.12;;;21.85;28.37
77212;BME280;66206;0.000;0.000;2023-12-22T01:47:48;96233.19;;;21.97;28.32
77212;BME280;66206;0.000;0.000;2023-12-22T01:50:15;96229.43;;;21.91;28.36
77212;BME280;66206;0.000;0.000;2023-12-22T01:52:43;96233.65;;;21.79;28.49
77212;BME280;66206;0.000;0.000;2023-12-22T01:55:10;96224.46;;;21.86;28.44
77212;BME280;66206;0.000;0.000;2023-12-22T01:57:38;96221.90;;;21.95;28.36
77212;BME280;66206;0.000;0.000;2023-12-22T02:00:06;96224.60;;;21.97;28.41
77212;BME280;66206;0.000;0.000;2023-12-22T02:02:33;96220.00;;;21.70;28.38
77212;BME280;66206;0.000;0.000;2023-12-22T02:05:00;96206.82;;;21.68;28.52
77212;BME280;66206;0.000;0.000;2023-12-22T02:07:26;96200.49;;;21.64;28.59
77212;BME280;66206;0.000;0.000;2023-12-22T02:09:54;96198.82;;;21.61;28.58
77212;BME280;66206;0.000;0.000;2023-12-22T02:12:20;96196.55;;;21.70;28.53
77212;BME280;66206;0.000;0.000;2023-12-22T02:14:47;96210.76;;;21.59;28.65
77212;BME280;66206;0.000;0.000;2023-12-22T02:17:15;96224.77;;;21.54;28.64
77212;BME280;66206;0.000;0.000;2023-12-22T02:19:45;96223.65;;;21.66;28.59
77212;BME280;66206;0.000;0.000;2023-12-22T02:22:12;96206.35;;;21.61;28.54
77212;BME280;66206;0.000;0.000;2023-12-22T02:24:39;96197.61;;;21.54;28.70
77212;BME280;66206;0.000;0.000;2023-12-22T02:27:09;96196.65;;;21.71;28.60
77212;BME280;66206;0.000;0.000;2023-12-22T02:29:37;96197.08;;;21.61;28.67
77212;BME280;66206;0.000;0.000;2023-12-22T02:32:06;96201.71;;;21.57;28.65
77212;BME280;66206;0.000;0.000;2023-12-22T02:34:34;96211.48;;;21.43;28.68
77212;BME280;66206;0.000;0.000;2023-12-22T02:37:02;96217.17;;;21.45;28.66
77212;BME280;66206;0.000;0.000;2023-12-22T02:39:30;96205.91;;;21.58;28.58
77212;BME280;66206;0.000;0.000;2023-12-22T02:41:56;96203.35;;;21.35;28.69
77212;BME280;66206;0.000;0.000;2023-12-22T02:44:23;96208.46;;;21.61;28.51
77212;BME280;66206;0.000;0.000;2023-12-22T02:46:50;96212.25;;;21.55;28.53
77212;BME280;66206;0.000;0.000;2023-12-22T02:49:17;96219.46;;;21.38;28.78
77212;BME280;66206;0.000;0.000;2023-12-22T02:51:44;96213.58;;;21.43;28.75
77212;BME280;66206;0.000;0.000;2023-12-22T02:54:11;96214.57;;;21.52;28.68
77212;BME280;66206;0.000;0.000;2023-12-22T02:56:37;96224.19;;;21.35;28.67
77212;BME280;66206;0.000;0.000;2023-12-22T02:59:04;96229.59;;;21.54;28.55
77212;BME280;66206;0.000;0.000;2023-12-22T03:01:31;96237.44;;;21.56;28.51
77212;BME280;66206;0.000;0.000;2023-12-22T03:03:57;96237.70;;;21.44;28.61
77212;BME280;66206;0.000;0.000;2023-12-22T03:06:24;96247.67;;;21.47;28.53
77212;BME280;66206;0.000;0.000;2023-12-22T03:08:51;96244.65;;;21.46;28.63
77212;BME280;66206;0.000;0.000;2023-12-22T03:11:17;96249.43;;;21.54;28.51
77212;BME280;66206;0.000;0.000;2023-12-22T03:13:44;96253.81;;;21.42;28.57
77212;BME280;66206;0.000;0.000;2023-12-22T03:16:11;96261.17;;;21.58;28.53
77212;BME280;66206;0.000;0.000;2023-12-22T03:18:38;96258.63;;;21.47;28.38
77212;BME280;66206;0.000;0.000;2023-12-22T03:21:05;96253.60;;;21.41;28.56
77212;BME280;66206;0.000;0.000;2023-12-22T03:23:31;96265.02;;;21.50;28.56
77212;BME280;66206;0.000;0.000;2023-12-22T03:26:02;96269.12;;;21.52;28.49
77212;BME280;66206;0.000;0.000;2023-12-22T03:28:24;96271.61;;;21.39;28.59
77212;BME280;66206;0.000;0.000;2023-12-22T03:30:51;96265.28;;;21.42;28.59
77212;BME280;66206;0.000;0.000;2023-12-22T03:33:18;96253.44;;;21.55;28.58
77212;BME280;66206;0.000;0.000;2023-12-22T03:35:44;96268.07;;;21.53;28.57
77212;BME280;66206;0.000;0.000;2023-12-22T03:38:11;96275.71;;;21.38;28.53
77212;BME280;66206;0.000;0.000;2023-12-22T03:40:38;96259.06;;;21.35;28.59
77212;BME280;66206;0.000;0.000;2023-12-22T03:43:05;96265.86;;;21.46;28.55
77212;BME280;66206;0.000;0.000;2023-12-22T03:45:31;96259.03;;;21.47;28.61
77212;BME280;66206;0.000;0.000;2023-12-22T03:47:58;96266.37;;;21.48;28.53
77212;BME280;66206;0.000;0.000;2023-12-22T03:52:37;96245.59;;;21.31;28.50
77212;BME280;66206;0.000;0.000;2023-12-22T03:54:01;96243.01;;;21.37;28.51
77212;BME280;66206;0.000;0.000;2023-12-22T03:56:28;96237.31;;;21.45;28.47
77212;BME280;66206;0.000;0.000;2023-12-22T03:58:55;96247.45;;;21.38;28.57
77212;BME280;66206;0.000;0.000;2023-12-22T04:01:22;96241.63;;;21.43;28.50
77212;BME280;66206;0.000;0.000;2023-12-22T04:03:48;96245.31;;;21.35;28.65
77212;BME280;66206;0.000;0.000;2023-12-22T04:06:15;96239.47;;;21.31;28.63
77212;BME280;66206;0.000;0.000;2023-12-22T04:08:42;96228.60;;;21.33;28.58
77212;BME280;66206;0.000;0.000;2023-12-22T04:11:09;96224.07;;;21.16;28.72
77212;BME280;66206;0.000;0.000;2023-12-22T04:13:36;96224.03;;;21.28;28.66
77212;BME280;66206;0.000;0.000;2023-12-22T04:16:03;96228.39;;;21.38;28.62
77212;BME280;66206;0.000;0.000;2023-12-22T04:18:30;96229.59;;;21.46;28.41
77212;BME280;66206;0.000;0.000;2023-12-22T04:20:56;96238.37;;;21.44;28.43
77212;BME280;66206;0.000;0.000;2023-12-22T04:23:23;96249.36;;;21.43;28.39
77212;BME280;66206;0.000;0.000;2023-12-22T04:25:50;96246.13;;;21.66;28.23
77212;BME280;66206;0.000;0.000;2023-12-22T04:28:17;96232.81;;;21.84;28.01
77212;BME280;66206;0.000;0.000;2023-12-22T04:30:43;96239.77;;;22.02;27.77
77212;BME280;66206;0.000;0.000;2023-12-22T04:33:10;96239.72;;;21.95;27.87
77212;BME280;66206;0.000;0.000;2023-12-22T04:35:37;96239.52;;;22.26;27.55
77212;BME280;66206;0.000;0.000;2023-12-22T04:39:40;96249.70;;;22.19;27.61
77212;BME280;66206;0.000;0.000;2023-12-22T04:41:04;96243.07;;;22.15;27.54
77212;BME280;66206;0.000;0.000;2023-12-22T04:43:31;96257.22;;;22.22;27.44
77212;BME280;66206;0.000;0.000;2023-12-22T04:45:57;96255.65;;;22.21;27.63
77212;BME280;66206;0.000;0.000;2023-12-22T04:48:24;96266.32;;;22.22;27.67
77212;BME280;66206;0.000;0.000;2023-12-22T04:50:51;96275.79;;;22.18;27.68
77212;BME280;66206;0.000;0.000;2023-12-22T04:53:18;96273.00;;;22.25;27.67
77212;BME280;66206;0.000;0.000;2023-12-22T04:55:45;96274.64;;;22.07;27.65
77212;BME280;66206;0.000;0.000;2023-12-22T04:58:11;96275.80;;;22.29;27.53
77212;BME280;66206;0.000;0.000;2023-12-22T05:00:38;96283.53;;;22.26;27.61
77212;BME280;66206;0.000;0.000;2023-12-22T05:03:05;96286.87;;;22.18;27.61
77212;BME280;66206;0.000;0.000;2023-12-22T05:05:31;96276.74;;;22.33;27.52
77212;BME280;66206;0.000;0.000;2023-12-22T05:07:58;96277.85;;;22.42;27.50
77212;BME280;66206;0.000;0.000;2023-12-22T05:10:25;96281.95;;;22.31;27.48
77212;BME280;66206;0.000;0.000;2023-12-22T05:12:52;96269.90;;;22.21;27.73
77212;BME280;66206;0.000;0.000;2023-12-22T05:15:18;96285.06;;;22.17;27.63
77212;BME280;66206;0.000;0.000;2023-12-22T05:17:45;96286.72;;;22.30;27.55
77212;BME280;66206;0.000;0.000;2023-12-22T05:20:12;96301.58;;;22.24;27.59
77212;BME280;66206;0.000;0.000;2023-12-22T05:22:39;96304.26;;;22.29;27.64
77212;BME280;66206;0.000;0.000;2023-12-22T05:25:06;96305.80;;;22.40;27.51
77212;BME280;66206;0.000;0.000;2023-12-22T05:27:33;96311.27;;;22.31;27.54
77212;BME280;66206;0.000;0.000;2023-12-22T05:30:00;96306.30;;;22.32;27.59
77212;BME280;66206;0.000;0.000;2023-12-22T05:32:26;96319.43;;;22.26;27.65
77212;BME280;66206;0.000;0.000;2023-12-22T05:34:53;96307.38;;;22.37;27.62
77212;BME280;66206;0.000;0.000;2023-12-22T05:37:20;96308.34;;;22.22;27.63
77212;BME280;66206;0.000;0.000;2023-12-22T05:39:47;96301.18;;;22.31;27.50
77212;BME280;66206;0.000;0.000;2023-12-22T05:42:13;96304.18;;;22.31;27.44
77212;BME280;66206;0.000;0.000;2023-12-22T05:44:40;96321.02;;;22.08;27.51
77212;BME280;66206;0.000;0.000;2023-12-22T05:47:07;96322.58;;;22.28;27.49
77212;BME280;66206;0.000;0.000;2023-12-22T05:49:34;96326.76;;;22.14;27.52
77212;BME280;66206;0.000;0.000;2023-12-22T05:52:01;96324.57;;;22.24;27.42
77212;BME280;66206;0.000;0.000;2023-12-22T05:54:27;96327.12;;;22.32;27.40
77212;BME280;66206;0.000;0.000;2023-12-22T05:56:54;96321.92;;;22.15;27.48
77212;BME280;66206;0.000;0.000;2023-12-22T05:59:21;96335.46;;;22.37;27.35
77212;BME280;66206;0.000;0.000;2023-12-22T06:01:48;96320.85;;;22.12;27.47
77212;BME280;66206;0.000;0.000;2023-12-22T06:04:14;96323.08;;;22.20;27.38
77212;BME280;66206;0.000;0.000;2023-12-22T06:06:41;96313.19;;;22.30;27.26
77212;BME280;66206;0.000;0.000;2023-12-22T06:09:07;96311.60;;;22.43;27.28
77212;BME280;66206;0.000;0.000;2023-12-22T06:11:34;96310.62;;;22.35;27.18
77212;BME280;66206;0.000;0.000;2023-12-22T06:14:01;96301.45;;;22.20;27.26
77212;BME280;66206;0.000;0.000;2023-12-22T06:16:28;96315.75;;;22.12;27.38
77212;BME280;66206;0.000;0.000;2023-12-22T06:18:54;96311.93;;;22.19;27.28
77212;BME280;66206;0.000;0.000;2023-12-22T06:21:21;96307.26;;;22.44;27.12
77212;BME280;66206;0.000;0.000;2023-12-22T06:23:48;96315.88;;;22.39;27.26
77212;BME280;66206;0.000;0.000;2023-12-22T06:26:15;96325.85;;;22.32;27.36
77212;BME280;66206;0.000;0.000;2023-12-22T06:28:41;96335.31;;;22.28;27.21
77212;BME280;66206;0.000;0.000;2023-12-22T06:31:10;96333.19;;;22.23;27.43
77212;BME280;66206;0.000;0.000;2023-12-22T06:33:37;96334.17;;;22.10;27.40
77212;BME280;66206;0.000;0.000;2023-12-22T06:36:04;96338.64;;;22.15;27.34
77212;BME280;66206;0.000;0.000;2023-12-22T06:38:31;96333.41;;;22.29;27.32
77212;BME280;66206;0.000;0.000;2023-12-22T06:40:58;96332.58;;;22.43;27.29
77212;BME280;66206;0.000;0.000;2023-12-22T06:43:24;96329.35;;;22.21;27.29
77212;BME280;66206;0.000;0.000;2023-12-22T06:45:51;96334.87;;;22.37;27.24
77212;BME280;66206;0.000;0.000;2023-12-22T06:48:18;96332.25;;;22.31;27.24
77212;BME280;66206;0.000;0.000;2023-12-22T06:50:45;96333.64;;;22.36;27.19
77212;BME280;66206;0.000;0.000;2023-12-22T06:53:11;96336.23;;;22.27;27.32
77212;BME280;66206;0.000;0.000;2023-12-22T06:55:38;96336.27;;;22.34;27.30
77212;BME280;66206;0.000;0.000;2023-12-22T06:58:05;96339.61;;;22.34;27.31
77212;BME280;66206;0.000;0.000;2023-12-22T07:00:32;96332.25;;;22.21;27.35
77212;BME280;66206;0.000;0.000;2023-12-22T07:02:58;96337.86;;;22.27;27.27
77212;BME280;66206;0.000;0.000;2023-12-22T07:05:33;96351.07;;;22.21;27.30
77212;BME280;66206;0.000;0.000;2023-12-22T07:07:54;96343.46;;;22.46;27.18
77212;BME280;66206;0.000;0.000;2023-12-22T07:10:21;96341.51;;;22.37;27.27
77212;BME280;66206;0.000;0.000;2023-12-22T07:12:48;96344.78;;;22.41;27.28
77212;BME280;66206;0.000;0.000;2023-12-22T07:15:15;96343.84;;;22.23;27.26
77212;BME280;66206;0.000;0.000;2023-12-22T07:17:42;96348.47;;;22.38;27.21
77212;BME280;66206;0.000;0.000;2023-12-22T07:20:09;96341.45;;;22.33;27.32
77212;BME280;66206;0.000;0.000;2023-12-22T07:22:36;96344.79;;;22.39;27.34
77212;BME280;66206;0.000;0.000;2023-12-22T07:25:03;96346.23;;;22.50;27.50
77212;BME280;66206;0.000;0.000;2023-12-22T07:27:30;96349.37;;;22.44;27.31
77212;BME280;66206;0.000;0.000;2023-12-22T07:29:56;96344.49;;;22.46;27.43
77212;BME280;66206;0.000;0.000;2023-12-22T07:32:23;96351.15;;;22.27;27.56
77212;BME280;66206;0.000;0.000;2023-12-22T07:34:50;96371.47;;;22.41;27.49
77212;BME280;66206;0.000;0.000;2023-12-22T07:37:17;96373.59;;;22.15;27.56
77212;BME280;66206;0.000;0.000;2023-12-22T07:39:43;96385.10;;;22.27;27.42
77212;BME280;66206;0.000;0.000;2023-12-22T07:42:10;96390.26;;;22.43;27.39
77212;BME280;66206;0.000;0.000;2023-12-22T07:44:37;96379.90;;;22.21;27.57
77212;BME280;66206;0.000;0.000;2023-12-22T07:47:04;96382.27;;;22.27;27.66
77212;BME280;66206;0.000;0.000;2023-12-22T07:49:30;96386.17;;;22.38;27.45
77212;BME280;66206;0.000;0.000;2023-12-22T07:51:57;96395.76;;;22.21;27.51
77212;BME280;66206;0.000;0.000;2023-12-22T07:54:24;96387.22;;;22.43;27.43
77212;BME280;66206;0.000;0.000;2023-12-22T07:56:51;96396.38;;;22.34;27.44
77212;BME280;66206;0.000;0.000;2023-12-22T07:59:18;96400.70;;;22.49;27.39
77212;BME280;66206;0.000;0.000;2023-12-22T08:01:44;96411.39;;;22.35;27.57
77212;BME280;66206;0.000;0.000;2023-12-22T08:04:11;96418.50;;;22.20;28.23
77212;BME280;66206;0.000;0.000;2023-12-22T08:06:38;96412.50;;;22.31;28.31
77212;BME280;66206;0.000;0.000;2023-12-22T08:09:05;96408.26;;;22.42;27.90
77212;BME280;66206;0.000;0.000;2023-12-22T08:11:31;96408.43;;;22.32;27.69
77212;BME280;66206;0.000;0.000;2023-12-22T08:13:58;96417.00;;;22.38;27.74
77212;BME280;66206;0.000;0.000;2023-12-22T08:16:25;96433.73;;;23.03;27.61
77212;BME280;66206;0.000;0.000;2023-12-22T08:18:52;96425.05;;;22.87;27.67
77212;BME280;66206;0.000;0.000;2023-12-22T08:21:18;96425.10;;;22.92;27.72
77212;BME280;66206;0.000;0.000;2023-12-22T08:23:45;96425.38;;;22.97;27.71
77212;BME280;66206;0.000;0.000;2023-12-22T08:26:12;96420.84;;;23.06;27.91
77212;BME280;66206;0.000;0.000;2023-12-22T08:28:39;96417.43;;;22.73;27.82
77212;BME280;66206;0.000;0.000;2023-12-22T08:31:06;96431.23;;;22.99;27.60
77212;BME280;66206;0.000;0.000;2023-12-22T08:33:32;96439.63;;;23.25;27.23
77212;BME280;66206;0.000;0.000;2023-12-22T08:35:59;96440.97;;;23.27;27.11
77212;BME280;66206;0.000;0.000;2023-12-22T08:38:26;96452.65;;;23.53;27.02
77212;BME280;66206;0.000;0.000;2023-12-22T08:40:53;96469.13;;;23.20;27.25
77212;BME280;66206;0.000;0.000;2023-12-22T08:43:20;96463.62;;;23.16;27.06
77212;BME280;66206;0.000;0.000;2023-12-22T08:45:47;96461.73;;;22.91;27.29
77212;BME280;66206;0.000;0.000;2023-12-22T08:48:14;96466.45;;;23.02;27.60
77212;BME280;66206;0.000;0.000;2023-12-22T08:50:40;96450.33;;;23.14;27.20
77212;BME280;66206;0.000;0.000;2023-12-22T08:53:07;96474.83;;;23.11;27.21
77212;BME280;66206;0.000;0.000;2023-12-22T08:55:34;96472.44;;;23.44;26.82
77212;BME280;66206;0.000;0.000;2023-12-22T08:58:01;96472.45;;;23.42;26.81
77212;BME280;66206;0.000;0.000;2023-12-22T09:00:27;96481.08;;;23.36;26.84
77212;BME280;66206;0.000;0.000;2023-12-22T09:02:54;96482.64;;;23.75;26.59
77212;BME280;66206;0.000;0.000;2023-12-22T09:05:21;96475.62;;;23.39;26.96
77212;BME280;66206;0.000;0.000;2023-12-22T09:07:48;96474.43;;;23.46;26.91
77212;BME280;66206;0.000;0.000;2023-12-22T09:10:15;96475.10;;;23.21;26.80
77212;BME280;66206;0.000;0.000;2023-12-22T09:12:41;96471.66;;;23.38;26.93
77212;BME280;66206;0.000;0.000;2023-12-22T09:15:08;96473.84;;;23.04;27.33
77212;BME280;66206;0.000;0.000;2023-12-22T09:17:35;96471.00;;;23.52;26.72
77212;BME280;66206;0.000;0.000;2023-12-22T09:20:02;96461.58;;;23.61;26.59
77212;BME280;66206;0.000;0.000;2023-12-22T09:22:29;96458.83;;;23.51;26.65
77212;BME280;66206;0.000;0.000;2023-12-22T09:24:56;96457.11;;;23.56;26.83
77212;BME280;66206;0.000;0.000;2023-12-22T09:27:22;96456.92;;;23.64;26.71
77212;BME280;66206;0.000;0.000;2023-12-22T09:29:49;96469.77;;;23.68;26.63
77212;BME280;66206;0.000;0.000;2023-12-22T09:32:16;96463.15;;;23.89;26.52
77212;BME280;66206;0.000;0.000;2023-12-22T09:34:43;96459.78;;;23.92;26.37
77212;BME280;66206;0.000;0.000;2023-12-22T09:37:09;96456.18;;;23.99;26.14
77212;BME280;66206;0.000;0.000;2023-12-22T09:39:36;96467.25;;;23.84;26.25
77212;BME280;66206;0.000;0.000;2023-12-22T09:42:03;96465.13;;;24.05;26.09
77212;BME280;66206;0.000;0.000;2023-12-22T09:44:31;96479.00;;;24.16;26.18
77212;BME280;66206;0.000;0.000;2023-12-22T09:46:58;96489.18;;;24.09;26.13
77212;BME280;66206;0.000;0.000;2023-12-22T09:49:26;96487.65;;;24.08;26.11
77212;BME280;66206;0.000;0.000;2023-12-22T09:51:53;96481.25;;;24.12;26.13
77212;BME280;66206;0.000;0.000;2023-12-22T09:54:20;96467.95;;;24.00;26.11
77212;BME280;66206;0.000;0.000;2023-12-22T09:56:47;96469.54;;;23.90;26.10
77212;BME280;66206;0.000;0.000;2023-12-22T09:59:14;96462.99;;;24.23;25.98
77212;BME280;66206;0.000;0.000;2023-12-22T10:01:42;96482.87;;;24.16;26.08
77212;BME280;66206;0.000;0.000;2023-12-22T10:04:09;96481.20;;;24.14;25.98
77212;BME280;66206;0.000;0.000;2023-12-22T10:06:36;96491.29;;;23.99;26.16
77212;BME280;66206;0.000;0.000;2023-12-22T10:09:03;96489.33;;;24.05;26.03
77212;BME280;66206;0.000;0.000;2023-12-22T10:11:31;96483.77;;;24.23;25.87
77212;BME280;66206;0.000;0.000;2023-12-22T10:13:59;96465.31;;;24.01;26.34
77212;BME280;66206;0.000;0.000;2023-12-22T10:16:26;96472.53;;;23.70;26.44
77212;BME280;66206;0.000;0.000;2023-12-22T10:18:53;96464.54;;;23.84;26.18
77212;BME280;66206;0.000;0.000;2023-12-22T10:21:21;96464.21;;;23.42;26.77
77212;BME280;66206;0.000;0.000;2023-12-22T10:23:47;96465.44;;;23.49;26.86
77212;BME280;66206;0.000;0.000;2023-12-22T10:26:14;96467.23;;;23.46;26.71
77212;BME280;66206;0.000;0.000;2023-12-22T10:28:41;96464.41;;;23.67;26.66
77212;BME280;66206;0.000;0.000;2023-12-22T10:31:08;96475.01;;;21.92;26.70
77212;BME280;66206;0.000;0.000;2023-12-22T10:33:35;96468.98;;;21.24;26.56
77212;BME280;66206;0.000;0.000;2023-12-22T10:36:02;96460.65;;;20.48;26.72
77212;BME280;66206;0.000;0.000;2023-12-22T10:38:32;96469.28;;;20.48;26.53
77212;BME280;66206;0.000;0.000;2023-12-22T10:40:59;96473.69;;;20.68;26.39
77212;BME280;66206;0.000;0.000;2023-12-22T10:43:26;96469.49;;;20.74;25.92
77212;BME280;66206;0.000;0.000;2023-12-22T10:45:52;96456.16;;;20.52;25.52
77212;BME280;66206;0.000;0.000;2023-12-22T10:48:19;96444.80;;;20.05;25.90
77212;BME280;66206;0.000;0.000;2023-12-22T10:50:46;96436.87;;;20.37;25.69
77212;BME280;66206;0.000;0.000;2023-12-22T10:53:13;96433.65;;;19.73;26.18
77212;BME280;66206;0.000;0.000;2023-12-22T10:55:39;96416.93;;;20.11;25.81
77212;BME280;66206;0.000;0.000;2023-12-22T10:58:06;96411.76;;;20.59;25.35
77212;BME280;66206;0.000;0.000;2023-12-22T11:00:33;96417.96;;;20.69;25.18
77212;BME280;66206;0.000;0.000;2023-12-22T11:03:03;96417.12;;;20.84;24.94
77212;BME280;66206;0.000;0.000;2023-12-22T11:05:27;96415.66;;;20.55;25.04
77212;BME280;66206;0.000;0.000;2023-12-22T11:07:55;96428.36;;;20.19;26.22
77212;BME280;66206;0.000;0.000;2023-12-22T11:10:24;96414.19;;;21.48;24.83
77212;BME280;66206;0.000;0.000;2023-12-22T11:12:51;96404.29;;;21.69;24.96
77212;BME280;66206;0.000;0.000;2023-12-22T11:15:19;96420.05;;;22.03;24.96
77212;BME280;66206;0.000;0.000;2023-12-22T11:17:47;96413.06;;;22.33;24.94
77212;BME280;66206;0.000;0.000;2023-12-22T11:20:15;96402.33;;;22.67;24.75
77212;BME280;66206;0.000;0.000;2023-12-22T11:22:42;96412.27;;;23.02;24.42
77212;BME280;66206;0.000;0.000;2023-12-22T11:25:09;96410.46;;;23.16;24.41
77212;BME280;66206;0.000;0.000;2023-12-22T11:27:36;96405.41;;;23.17;24.48
77212;BME280;66206;0.000;0.000;2023-12-22T11:30:04;96398.18;;;23.07;24.62
77212;BME280;66206;0.000;0.000;2023-12-22T11:32:31;96395.55;;;23.45;24.27
77212;BME280;66206;0.000;0.000;2023-12-22T11:35:00;96389.96;;;23.48;24.26
77212;BME280;66206;0.000;0.000;2023-12-22T11:37:26;96375.43;;;23.56;24.59
77212;BME280;66206;0.000;0.000;2023-12-22T11:39:53;96371.14;;;23.66;24.45
77212;BME280;66206;0.000;0.000;2023-12-22T11:42:21;96357.58;;;23.58;24.72
77212;BME280;66206;0.000;0.000;2023-12-22T11:44:49;96356.82;;;23.43;24.75
77212;BME280;66206;0.000;0.000;2023-12-22T11:47:17;96354.04;;;23.84;24.53
77212;BME280;66206;0.000;0.000;2023-12-22T11:49:43;96351.90;;;23.89;24.45
77212;BME280;66206;0.000;0.000;2023-12-22T11:52:11;96346.40;;;23.97;24.55
77212;BME280;66206;0.000;0.000;2023-12-22T11:54:46;96346.66;;;23.80;24.78
77212;BME280;66206;0.000;0.000;2023-12-22T11:57:13;96346.92;;;23.51;24.80
77212;BME280;66206;0.000;0.000;2023-12-22T11:59:34;96336.06;;;23.86;24.75
77212;BME280;66206;0.000;0.000;2023-12-22T12:02:02;96340.15;;;23.74;24.80
77212;BME280;66206;0.000;0.000;2023-12-22T12:04:28;96335.70;;;23.86;24.90
77212;BME280;66206;0.000;0.000;2023-12-22T12:06:55;96334.66;;;23.68;24.87
77212;BME280;66206;0.000;0.000;2023-12-22T12:09:23;96325.16;;;24.00;24.65
77212;BME280;66206;0.000;0.000;2023-12-22T12:12:23;96326.23;;;24.23;24.44
77212;BME280;66206;0.000;0.000;2023-12-22T12:14:21;96307.44;;;24.21;24.58
77212;BME280;66206;0.000;0.000;2023-12-22T12:16:48;96298.23;;;24.13;24.57
77212;BME280;66206;0.000;0.000;2023-12-22T12:19:30;96287.97;;;23.95;24.97
77212;BME280;66206;0.000;0.000;2023-12-22T12:21:42;96291.41;;;23.82;25.12
77212;BME280;66206;0.000;0.000;2023-12-22T12:24:08;96280.73;;;23.75;25.08
77212;BME280;66206;0.000;0.000;2023-12-22T12:26:40;96271.77;;;23.72;25.19
77212;BME280;66206;0.000;0.000;2023-12-22T12:29:01;96257.85;;;23.44;25.39
77212;BME280;66206;0.000;0.000;2023-12-22T12:31:35;96250.02;;;23.39;25.46
77212;BME280;66206;0.000;0.000;2023-12-22T12:33:57;96244.72;;;23.78;25.07
77212;BME280;66206;0.000;0.000;2023-12-22T12:36:24;96242.15;;;23.53;25.38
77212;BME280;66206;0.000;0.000;2023-12-22T12:38:53;96245.05;;;23.86;25.22
77212;BME280;66206;0.000;0.000;2023-12-22T12:41:22;96236.24;;;24.10;24.91
77212;BME280;66206;0.000;0.000;2023-12-22T12:43:48;96236.94;;;23.87;25.09
77212;BME280;66206;0.000;0.000;2023-12-22T12:46:16;96230.60;;;24.23;24.82
77212;BME280;66206;0.000;0.000;2023-12-22T12:48:43;96215.66;;;23.95;24.93
77212;BME280;66206;0.000;0.000;2023-12-22T12:51:09;96204.82;;;23.77;25.20
77212;BME280;66206;0.000;0.000;2023-12-22T12:53:36;96202.28;;;23.79;25.28
77212;BME280;66206;0.000;0.000;2023-12-22T12:56:04;96192.38;;;23.70;25.37
77212;BME280;66206;0.000;0.000;2023-12-22T12:58:31;96205.51;;;23.88;25.25
77212;BME280;66206;0.000;0.000;2023-12-22T13:01:06;96212.30;;;23.80;25.35
77212;BME280;66206;0.000;0.000;2023-12-22T13:03:28;96202.42;;;23.64;25.43
77212;BME280;66206;0.000;0.000;2023-12-22T13:06:05;96197.45;;;23.71;25.37
77212;BME280;66206;0.000;0.000;2023-12-22T13:08:21;96201.45;;;23.91;25.09